Time;durP1;ratioP1;P1;durP2;ratioP2;P2;SDS_P1;SDS_P2;PMS_P1;PMS_P2;Temp;Humidity;BMP_temperature;BMP_pressure;BME280_temperature;BME280_humidity;BME280_pressure;Samples;Min_cycle;Max_cycle;Signal;HPM_P1;HPM_P2
2021/07/20 00:01:53;;;;;;;4.30;2.10;;;;;;;;;;4995302;28;20030;-76
2021/07/20 00:04:18;;;;;;;3.77;1.97;;;;;;;;;;4979331;28;20034;-76
2021/07/20 00:06:43;;;;;;;3.97;2.00;;;;;;;;;;4979062;28;20023;-76
2021/07/20 00:09:10;;;;;;;4.40;1.93;;;;;;;;;;4996357;28;20066;-76
2021/07/20 00:11:35;;;;;;;3.78;2.05;;;;;;;;;;4962912;28;20026;-76
2021/07/20 00:14:01;;;;;;;3.07;1.87;;;;;;;;;;4995235;28;20122;-76
2021/07/20 00:16:26;;;;;;;3.63;2.03;;;;;;;;;;4995550;28;20395;-76
2021/07/20 00:18:52;;;;;;;4.20;2.03;;;;;;;;;;4978862;28;20037;-76
2021/07/20 00:21:17;;;;;;;4.33;2.07;;;;;;;;;;4994973;28;20053;-76
2021/07/20 00:23:42;;;;;;;4.33;2.30;;;;;;;;;;4994933;28;20073;-76
2021/07/20 00:26:09;;;;;;;4.43;2.20;;;;;;;;;;4962630;28;20022;-76
2021/07/20 00:28:34;;;;;;;;;;;;;;;;;;4979269;28;20037;-76
2021/07/20 00:30:59;;;;;;;3.93;2.00;;;;;;;;;;5011182;28;19910;-76
2021/07/20 00:33:25;;;;;;;4.83;2.27;;;;;;;;;;4978565;28;20535;-76
2021/07/20 00:35:50;;;;;;;4.10;2.30;;;;;;;;;;4978551;28;20492;-76
2021/07/20 00:38:16;;;;;;;4.13;2.20;;;;;;;;;;4978534;28;20053;-76
2021/07/20 00:40:41;;;;;;;4.20;2.10;;;;;;;;;;4994678;28;20519;-76
2021/07/20 00:43:07;;;;;;;4.78;2.28;;;;;;;;;;4978408;28;20034;-76
2021/07/20 00:45:33;;;;;;;4.30;2.10;;;;;;;;;;4994619;28;20026;-76
2021/07/20 00:47:58;;;;;;;4.40;2.00;;;;;;;;;;4978543;28;20362;-76
2021/07/20 00:50:29;;;;;;;4.40;1.93;;;;;;;;;;4978951;28;20026;-76
2021/07/20 00:52:54;;;;;;;4.43;2.10;;;;;;;;;;4995525;28;20081;-76
2021/07/20 00:55:20;;;;;;;4.17;2.00;;;;;;;;;;4994665;28;20105;-76
2021/07/20 00:57:45;;;;;;;4.47;2.17;;;;;;;;;;4975938;28;20022;-76
2021/07/20 01:00:12;;;;;;;3.90;1.80;;;;;;;;;;4962042;28;20026;-76
2021/07/20 01:02:38;;;;;;;4.32;1.92;;;;;;;;;;4962150;28;20378;-76
2021/07/20 01:05:05;;;;;;;4.33;2.10;;;;;;;;;;4977965;28;20156;-76
2021/07/20 01:07:30;;;;;;;3.90;2.00;;;;;;;;;;4977843;28;20038;-76
2021/07/20 01:09:56;;;;;;;5.33;2.17;;;;;;;;;;4977919;28;20524;-76
2021/07/20 01:12:21;;;;;;;5.40;2.37;;;;;;;;;;4960582;28;20088;-76
2021/07/20 01:14:47;;;;;;;4.07;2.10;;;;;;;;;;4961852;28;20065;-76
2021/07/20 01:17:12;;;;;;;5.00;2.20;;;;;;;;;;4977834;28;20034;-76
2021/07/20 01:19:39;;;;;;;4.07;2.00;;;;;;;;;;4961686;28;20018;-76
2021/07/20 01:22:05;;;;;;;5.22;2.20;;;;;;;;;;4961733;28;20516;-76
2021/07/20 01:24:30;;;;;;;5.27;2.30;;;;;;;;;;4977724;28;20105;-76
2021/07/20 01:26:55;;;;;;;5.53;2.40;;;;;;;;;;4995040;28;20028;-76
2021/07/20 01:29:21;;;;;;;4.20;2.17;;;;;;;;;;4977432;28;20057;-76
2021/07/20 01:31:46;;;;;;;4.17;2.10;;;;;;;;;;4961569;28;20033;-76
2021/07/20 01:34:12;;;;;;;4.23;2.13;;;;;;;;;;4961389;28;20611;-76
2021/07/20 01:36:38;;;;;;;4.38;1.90;;;;;;;;;;4961388;28;20489;-77
2021/07/20 01:39:04;;;;;;;4.40;2.00;;;;;;;;;;4994759;28;20080;-76
2021/07/20 01:41:30;;;;;;;4.43;2.10;;;;;;;;;;4961225;28;20026;-76
2021/07/20 01:43:57;;;;;;;4.50;2.10;;;;;;;;;;4961249;28;20030;-76
2021/07/20 01:46:25;;;;;;;3.95;2.05;;;;;;;;;;4961386;28;20022;-76
2021/07/20 01:48:51;;;;;;;4.53;2.30;;;;;;;;;;4994550;28;20114;-76
2021/07/20 01:51:16;;;;;;;4.38;1.98;;;;;;;;;;4961235;28;20105;-76
2021/07/20 01:53:41;;;;;;;4.17;2.30;;;;;;;;;;4961039;28;20034;-76
2021/07/20 01:56:07;;;;;;;4.60;2.33;;;;;;;;;;4977325;28;20057;-76
2021/07/20 01:58:37;;;;;;;4.53;2.08;;;;;;;;;;4961096;28;20100;-76
2021/07/20 02:01:02;;;;;;;3.63;1.80;;;;;;;;;;4961760;28;20038;-76
2021/07/20 02:08:47;;;;;;;3.65;2.00;;;;;;;;;;4965794;28;20106;-76
2021/07/20 02:11:21;;;;;;;4.05;2.10;;;;;;;;;;4977232;28;20413;-76
2021/07/20 02:13:52;;;;;;;4.45;1.98;;;;;;;;;;4977671;28;20034;-76
2021/07/20 02:16:18;;;;;;;4.63;2.30;;;;;;;;;;4961346;28;20207;-76
2021/07/20 02:18:44;;;;;;;;;;;;;;;;;;4961297;28;20022;-76
2021/07/20 02:21:10;;;;;;;4.85;2.30;;;;;;;;;;4994045;28;20372;-76
2021/07/20 02:23:35;;;;;;;4.70;2.00;;;;;;;;;;4960306;28;20034;-76
2021/07/20 02:26:04;;;;;;;5.17;2.13;;;;;;;;;;4960605;28;20048;-76
2021/07/20 02:28:29;;;;;;;4.28;1.90;;;;;;;;;;4976586;28;20034;-76
2021/07/20 02:30:55;;;;;;;4.63;2.10;;;;;;;;;;4976527;28;20032;-76
2021/07/20 02:33:21;;;;;;;4.47;2.10;;;;;;;;;;4960751;28;20377;-76
2021/07/20 02:35:47;;;;;;;4.67;2.20;;;;;;;;;;4960464;28;20034;-76
2021/07/20 02:38:12;;;;;;;4.60;2.10;;;;;;;;;;4976560;28;20026;-76
2021/07/20 02:40:38;;;;;;;4.73;1.93;;;;;;;;;;4993797;28;20111;-76
2021/07/20 02:43:03;;;;;;;4.63;2.07;;;;;;;;;;4976416;28;20030;-76
2021/07/20 02:45:29;;;;;;;6.03;2.37;;;;;;;;;;4976430;28;20434;-76
2021/07/20 02:47:54;;;;;;;5.73;2.20;;;;;;;;;;4960560;28;20436;-76
2021/07/20 02:50:19;;;;;;;3.50;1.90;;;;;;;;;;4960426;28;20503;-76
2021/07/20 02:52:45;;;;;;;4.87;2.40;;;;;;;;;;4976344;28;20445;-76
2021/07/20 02:55:12;;;;;;;4.40;2.00;;;;;;;;;;4976429;28;20120;-76
2021/07/20 02:57:37;;;;;;;4.07;2.10;;;;;;;;;;4960273;28;20030;-76
2021/07/20 03:00:05;;;;;;;4.67;1.97;;;;;;;;;;4960635;28;20088;-76
2021/07/20 03:02:34;;;;;;;4.85;2.00;;;;;;;;;;4960126;28;20026;-76
2021/07/20 03:04:59;;;;;;;4.03;2.10;;;;;;;;;;4960255;28;20032;-76
2021/07/20 03:07:25;;;;;;;4.00;2.10;;;;;;;;;;4993614;28;20058;-76
2021/07/20 03:09:51;;;;;;;3.92;1.92;;;;;;;;;;4960409;28;20034;-76
2021/07/20 03:12:16;;;;;;;3.83;2.10;;;;;;;;;;4960058;28;20034;-76
2021/07/20 03:14:42;;;;;;;5.60;2.37;;;;;;;;;;4944025;28;20054;-76
2021/07/20 03:17:07;;;;;;;4.27;1.93;;;;;;;;;;4960052;28;20027;-76
2021/07/20 03:19:33;;;;;;;4.70;2.30;;;;;;;;;;4960302;28;20466;-76
2021/07/20 03:22:02;;;;;;;4.27;2.10;;;;;;;;;;4960040;28;20070;-76
2021/07/20 03:24:27;;;;;;;4.15;2.10;;;;;;;;;;4976276;28;20117;-76
2021/07/20 03:26:53;;;;;;;4.30;2.00;;;;;;;;;;4959996;28;20097;-76
2021/07/20 03:29:18;;;;;;;4.15;2.00;;;;;;;;;;4959850;28;20050;-76
2021/07/20 03:31:43;;;;;;;4.83;2.13;;;;;;;;;;4959999;28;20105;-76
2021/07/20 03:34:09;;;;;;;3.70;1.80;;;;;;;;;;4959826;28;20113;-76
2021/07/20 03:36:35;;;;;;;4.20;2.07;;;;;;;;;;4961854;28;20069;-76
2021/07/20 03:39:00;;;;;;;4.53;1.90;;;;;;;;;;4963442;28;20117;-76
2021/07/20 03:41:26;;;;;;;5.37;2.13;;;;;;;;;;4979458;28;20105;-76
2021/07/20 03:43:52;;;;;;;5.43;2.10;;;;;;;;;;4963697;28;20018;-76
2021/07/20 03:46:17;;;;;;;4.22;1.92;;;;;;;;;;4979440;28;20085;-76
2021/07/20 03:48:43;;;;;;;5.80;2.30;;;;;;;;;;4979360;28;20516;-76
2021/07/20 03:51:08;;;;;;;3.97;1.73;;;;;;;;;;4963416;28;20520;-76
2021/07/20 03:53:34;;;;;;;4.73;2.10;;;;;;;;;;4947328;28;20414;-76
2021/07/20 03:56:00;;;;;;;4.43;2.07;;;;;;;;;;4963337;28;20393;-76
2021/07/20 03:58:25;;;;;;;4.63;1.90;;;;;;;;;;4963316;28;20541;-76
2021/07/20 04:00:52;;;;;;;4.70;2.00;;;;;;;;;;4979096;28;20109;-76
2021/07/20 04:03:21;;;;;;;4.45;2.20;;;;;;;;;;4963228;28;20485;-76
2021/07/20 04:05:46;;;;;;;3.22;1.92;;;;;;;;;;4963866;28;20029;-76
2021/07/20 04:08:12;;;;;;;4.33;2.00;;;;;;;;;;4963052;28;20046;-76
2021/07/20 04:10:38;;;;;;;4.63;2.00;;;;;;;;;;4963016;28;20525;-76
2021/07/20 04:13:03;;;;;;;4.17;1.80;;;;;;;;;;4963000;28;20517;-76
2021/07/20 04:15:28;;;;;;;5.37;2.30;;;;;;;;;;4962900;28;20473;-76
2021/07/20 04:17:54;;;;;;;5.40;1.90;;;;;;;;;;4962865;28;20433;-76
2021/07/20 04:20:19;;;;;;;4.70;2.13;;;;;;;;;;4962837;28;20504;-76
2021/07/20 04:22:44;;;;;;;3.70;1.97;;;;;;;;;;4946739;28;20477;-76
2021/07/20 04:25:11;;;;;;;4.23;2.17;;;;;;;;;;4962661;28;20062;-76
2021/07/20 04:27:37;;;;;;;4.45;2.10;;;;;;;;;;4978669;28;20030;-76
2021/07/20 04:30:04;;;;;;;4.22;2.13;;;;;;;;;;4963047;28;20397;-76
2021/07/20 04:32:30;;;;;;;3.95;1.98;;;;;;;;;;4962613;28;20547;-76
2021/07/20 04:34:55;;;;;;;3.97;2.15;;;;;;;;;;4962880;28;20030;-76
2021/07/20 04:37:20;;;;;;;5.63;2.07;;;;;;;;;;5036497;22;20032;-76
2021/07/20 04:39:46;;;;;;;4.47;2.20;;;;;;;;;;4998826;28;20045;-75
2021/07/20 04:42:12;;;;;;;4.97;2.10;;;;;;;;;;5034463;28;20514;-74
2021/07/20 04:44:38;;;;;;;4.60;2.00;;;;;;;;;;5017692;28;20040;-75
2021/07/20 04:47:03;;;;;;;4.60;1.90;;;;;;;;;;5017204;28;20100;-74
2021/07/20 04:49:29;;;;;;;4.17;1.90;;;;;;;;;;5017326;28;20388;-74
2021/07/20 04:51:54;;;;;;;4.10;2.00;;;;;;;;;;5033777;28;20140;-74
2021/07/20 04:54:19;;;;;;;4.00;1.80;;;;;;;;;;5017788;28;20060;-75
2021/07/20 04:56:45;;;;;;;4.00;1.80;;;;;;;;;;5033786;28;20060;-74
2021/07/20 04:59:11;;;;;;;4.70;1.90;;;;;;;;;;5017171;28;20017;-75
2021/07/20 05:01:37;;;;;;;;;;;;;;;;;;5017914;28;20468;-74
2021/07/20 05:04:02;;;;;;;3.95;1.98;;;;;;;;;;5035217;28;19940;-75
2021/07/20 05:06:28;;;;;;;5.03;2.00;;;;;;;;;;5033663;28;20021;-74
2021/07/20 05:08:53;;;;;;;5.13;2.10;;;;;;;;;;5033429;28;20045;-75
2021/07/20 05:11:20;;;;;;;4.43;2.10;;;;;;;;;;5017358;28;20025;-74
2021/07/20 05:13:45;;;;;;;4.03;2.00;;;;;;;;;;5017030;28;20029;-75
2021/07/20 05:16:11;;;;;;;4.53;2.07;;;;;;;;;;5016968;28;20032;-74
2021/07/20 05:18:36;;;;;;;5.67;2.20;;;;;;;;;;5016832;28;20310;-74
2021/07/20 05:21:02;;;;;;;5.00;2.20;;;;;;;;;;5016729;28;20029;-74
2021/07/20 05:23:27;;;;;;;4.90;2.07;;;;;;;;;;5033260;28;20508;-74
2021/07/20 05:25:57;;;;;;;4.50;2.10;;;;;;;;;;5033676;28;20067;-75
2021/07/20 05:28:26;;;;;;;5.13;2.33;;;;;;;;;;5033102;28;20464;-74
2021/07/20 05:30:55;;;;;;;3.75;1.90;;;;;;;;;;5017050;28;20083;-74
2021/07/20 05:33:21;;;;;;;4.63;2.05;;;;;;;;;;5033240;28;20072;-74
2021/07/20 05:35:51;;;;;;;4.23;1.97;;;;;;;;;;5016515;28;20064;-74
2021/07/20 05:38:17;;;;;;;4.18;1.98;;;;;;;;;;5003641;28;20021;-75
2021/07/20 05:40:42;;;;;;;5.20;2.40;;;;;;;;;;4990818;28;20624;-74
2021/07/20 05:43:07;;;;;;;4.07;1.90;;;;;;;;;;4993314;28;20032;-74
2021/07/20 05:45:34;;;;;;;3.47;1.70;;;;;;;;;;4977261;28;20161;-74
2021/07/20 05:48:00;;;;;;;3.30;1.98;;;;;;;;;;4977863;28;20029;-75
2021/07/20 05:50:25;;;;;;;3.87;2.00;;;;;;;;;;4993310;28;20098;-74
2021/07/20 05:52:51;;;;;;;5.47;2.10;;;;;;;;;;4993318;28;20058;-74
2021/07/20 05:55:18;;;;;;;4.60;2.28;;;;;;;;;;4993544;28;20022;-74
2021/07/20 05:57:47;;;;;;;3.80;1.92;;;;;;;;;;4977271;28;20034;-75
2021/07/20 06:00:14;;;;;;;4.85;2.05;;;;;;;;;;4976893;28;20081;-74
2021/07/20 06:02:40;;;;;;;4.13;2.10;;;;;;;;;;4977059;28;20030;-74
2021/07/20 06:05:06;;;;;;;4.37;2.20;;;;;;;;;;4976999;28;20041;-74
2021/07/20 06:07:32;;;;;;;;;;;;;;;;;;4977310;28;20034;-74
2021/07/20 06:09:57;;;;;;;4.88;1.95;;;;;;;;;;4994379;28;20419;-75
2021/07/20 06:12:24;;;;;;;4.30;2.10;;;;;;;;;;4976900;28;20058;-74
2021/07/20 06:14:49;;;;;;;4.35;2.20;;;;;;;;;;4976937;28;20026;-74
2021/07/20 06:17:14;;;;;;;3.70;2.03;;;;;;;;;;4976799;28;20040;-74
2021/07/20 06:19:40;;;;;;;4.27;1.97;;;;;;;;;;4976980;28;20097;-75
2021/07/20 06:22:09;;;;;;;4.03;1.93;;;;;;;;;;5009088;28;20485;-74
2021/07/20 06:24:45;;;;;;;3.38;2.15;;;;;;;;;;4976726;28;20030;-74
2021/07/20 06:27:13;;;;;;;4.00;1.92;;;;;;;;;;4962388;28;20022;-74
2021/07/20 06:29:39;;;;;;;4.45;2.38;;;;;;;;;;4976832;28;20064;-74
2021/07/20 06:32:06;;;;;;;4.83;2.20;;;;;;;;;;4976765;28;20497;-75
2021/07/20 06:34:36;;;;;;;5.75;2.35;;;;;;;;;;4993028;28;20026;-74
2021/07/20 06:37:01;;;;;;;4.43;2.13;;;;;;;;;;4976364;28;20080;-74
2021/07/20 06:39:26;;;;;;;5.03;2.10;;;;;;;;;;4992498;28;20440;-74
2021/07/20 06:41:52;;;;;;;4.63;2.07;;;;;;;;;;4976447;28;20029;-74
2021/07/20 06:44:17;;;;;;;4.37;1.90;;;;;;;;;;4992824;28;20046;-74
2021/07/20 06:46:42;;;;;;;4.30;2.10;;;;;;;;;;4992521;28;20026;-74
2021/07/20 06:49:08;;;;;;;5.77;2.33;;;;;;;;;;4976280;28;20077;-74
2021/07/20 06:51:33;;;;;;;5.00;2.20;;;;;;;;;;4992445;28;20058;-74
2021/07/20 06:53:58;;;;;;;6.63;2.10;;;;;;;;;;4992615;28;20062;-75
2021/07/20 06:56:27;;;;;;;4.90;2.17;;;;;;;;;;4976300;28;20520;-75
2021/07/20 06:58:52;;;;;;;4.47;2.25;;;;;;;;;;4992478;28;20019;-74
2021/07/20 07:01:17;;;;;;;3.67;1.93;;;;;;;;;;4992322;28;20080;-74
2021/07/20 07:04:15;;;;;;;3.97;2.00;;;;;;;;;;4989958;28;20446;-74
2021/07/20 07:06:44;;;;;;;5.35;2.40;;;;;;;;;;5009037;28;20034;-74
2021/07/20 07:09:10;;;;;;;4.75;2.20;;;;;;;;;;5012015;28;20100;-75
2021/07/20 07:11:35;;;;;;;4.57;1.90;;;;;;;;;;5015580;28;20477;-74
2021/07/20 07:14:00;;;;;;;4.63;2.20;;;;;;;;;;5015911;28;20044;-74
2021/07/20 07:16:26;;;;;;;4.50;2.00;;;;;;;;;;5015865;28;20026;-74
2021/07/20 07:18:51;;;;;;;4.07;2.17;;;;;;;;;;5016462;28;20014;-74
2021/07/20 07:21:17;;;;;;;5.03;2.00;;;;;;;;;;5015817;28;20465;-74
2021/07/20 07:23:42;;;;;;;4.47;2.10;;;;;;;;;;5015693;28;20400;-74
2021/07/20 07:26:07;;;;;;;4.60;1.90;;;;;;;;;;5015711;28;20108;-74
2021/07/20 07:28:34;;;;;;;3.70;2.07;;;;;;;;;;5015466;28;20049;-74
2021/07/20 07:31:00;;;;;;;3.88;2.05;;;;;;;;;;5015696;28;20041;-75
2021/07/20 07:33:25;;;;;;;4.33;1.90;;;;;;;;;;5015465;28;20026;-75
2021/07/20 07:35:50;;;;;;;4.23;1.90;;;;;;;;;;5015399;28;20064;-74
2021/07/20 07:38:17;;;;;;;4.20;2.00;;;;;;;;;;5015260;28;20025;-74
2021/07/20 07:40:43;;;;;;;4.35;1.88;;;;;;;;;;5015418;28;20057;-74
2021/07/20 07:43:08;;;;;;;5.05;1.88;;;;;;;;;;5015474;28;20061;-75
2021/07/20 07:45:34;;;;;;;4.47;2.23;;;;;;;;;;5015308;28;20069;-74
2021/07/20 07:47:59;;;;;;;5.77;2.10;;;;;;;;;;5015235;28;20014;-75
2021/07/20 07:50:25;;;;;;;3.80;1.97;;;;;;;;;;5015271;28;20030;-74
2021/07/20 07:52:51;;;;;;;4.67;1.97;;;;;;;;;;5015326;28;20026;-74
2021/07/20 07:55:19;;;;;;;4.35;2.00;;;;;;;;;;5015266;28;20045;-74
2021/07/20 07:57:45;;;;;;;4.20;2.10;;;;;;;;;;5015162;28;20030;-74
2021/07/20 08:00:11;;;;;;;5.03;1.97;;;;;;;;;;5014968;28;20021;-74
2021/07/20 08:02:36;;;;;;;4.00;1.85;;;;;;;;;;5014875;28;20511;-74
2021/07/20 08:05:04;;;;;;;4.93;2.20;;;;;;;;;;5015062;28;20062;-74
2021/07/20 08:07:29;;;;;;;4.38;2.22;;;;;;;;;;5014873;28;20057;-74
2021/07/20 08:09:55;;;;;;;4.20;2.10;;;;;;;;;;5014863;28;20026;-74
2021/07/20 08:12:21;;;;;;;4.07;2.10;;;;;;;;;;5014792;28;20034;-74
2021/07/20 08:14:46;;;;;;;4.43;2.30;;;;;;;;;;5014792;28;20388;-74
2021/07/20 08:17:12;;;;;;;3.83;1.90;;;;;;;;;;5014888;28;20107;-74
2021/07/20 08:19:37;;;;;;;3.77;2.00;;;;;;;;;;5014753;28;20025;-74
2021/07/20 08:22:07;;;;;;;3.97;2.17;;;;;;;;;;5014003;28;20444;-74
2021/07/20 08:24:34;;;;;;;3.50;1.65;;;;;;;;;;5014689;28;20110;-74
2021/07/20 08:27:04;;;;;;;3.65;2.10;;;;;;;;;;4999048;28;20096;-74
2021/07/20 08:29:34;;;;;;;3.40;1.85;;;;;;;;;;4998474;28;20076;-74
2021/07/20 08:32:04;;;;;;;3.53;2.10;;;;;;;;;;5014433;28;20496;-74
2021/07/20 08:34:32;;;;;;;3.33;1.90;;;;;;;;;;5014305;28;20041;-74
2021/07/20 08:36:57;;;;;;;3.50;2.08;;;;;;;;;;5013586;28;20041;-73
2021/07/20 08:39:23;;;;;;;3.50;1.97;;;;;;;;;;5014326;28;20026;-75
2021/07/20 08:42:06;;;;;;;3.17;1.90;;;;;;;;;;4995001;28;20117;-74
2021/07/20 08:44:46;;;;;;;3.03;1.85;;;;;;;;;;4994635;28;20500;-75
2021/07/20 08:47:16;;;;;;;3.88;1.90;;;;;;;;;;4999174;28;20076;-74
2021/07/20 08:50:03;;;;;;;3.40;1.90;;;;;;;;;;5014773;28;20388;-75
2021/07/20 08:52:29;;;;;;;3.55;1.80;;;;;;;;;;5030584;28;20382;-74
2021/07/20 08:54:55;;;;;;;;;;;;;;;;;;5014441;28;20029;-74
2021/07/20 08:57:42;;;;;;;3.50;1.98;;;;;;;;;;5030512;28;19996;-74
2021/07/20 09:00:16;;;;;;;5.32;2.22;;;;;;;;;;5014346;28;20022;-74
2021/07/20 09:02:48;;;;;;;3.60;1.92;;;;;;;;;;5013960;28;20053;-74
2021/07/20 09:05:25;;;;;;;3.22;1.90;;;;;;;;;;5015007;28;20025;-74
2021/07/20 09:08:01;;;;;;;3.37;2.07;;;;;;;;;;5013792;28;20064;-75
2021/07/20 09:10:30;;;;;;;3.78;2.25;;;;;;;;;;5006220;28;20281;-74
2021/07/20 09:12:55;;;;;;;4.00;2.10;;;;;;;;;;4994206;28;20034;-74
2021/07/20 09:15:21;;;;;;;4.23;2.50;;;;;;;;;;4994138;28;20493;-74
2021/07/20 09:18:28;;;;;;;4.55;2.20;;;;;;;;;;4977974;28;20018;-74
2021/07/20 09:20:56;;;;;;;4.05;1.92;;;;;;;;;;4954208;29;20031;-74
2021/07/20 09:23:32;;;;;;;3.38;2.00;;;;;;;;;;4967375;28;20057;-74
2021/07/20 09:26:07;;;;;;;4.18;2.17;;;;;;;;;;4993946;28;20511;-74
2021/07/20 09:28:52;;;;;;;4.28;2.33;;;;;;;;;;4978605;28;20437;-74
2021/07/20 09:31:26;;;;;;;4.35;2.30;;;;;;;;;;4977830;28;20089;-74
2021/07/20 09:34:26;;;;;;;3.85;2.08;;;;;;;;;;4994261;28;20029;-74
2021/07/20 09:37:11;;;;;;;3.97;2.33;;;;;;;;;;4994133;28;20093;-74
2021/07/20 09:39:40;;;;;;;4.07;2.13;;;;;;;;;;4995677;28;20362;-74
2021/07/20 09:42:30;;;;;;;4.35;2.28;;;;;;;;;;5004588;28;20071;-74
2021/07/20 09:45:12;;;;;;;3.80;1.92;;;;;;;;;;5015039;28;20064;-74
2021/07/20 09:47:58;;;;;;;3.80;2.10;;;;;;;;;;4996532;28;20025;-74
2021/07/20 09:50:23;;;;;;;4.15;2.10;;;;;;;;;;5013087;28;20036;-74
2021/07/20 09:53:07;;;;;;;4.30;2.30;;;;;;;;;;5013048;28;20479;-74
2021/07/20 09:55:41;;;;;;;3.83;2.00;;;;;;;;;;5014146;28;20018;-74
2021/07/20 09:58:12;;;;;;;4.05;2.00;;;;;;;;;;5014048;28;20473;-74
2021/07/20 10:00:42;;;;;;;3.83;1.92;;;;;;;;;;5014256;28;20026;-74
2021/07/20 10:03:12;;;;;;;4.28;2.20;;;;;;;;;;4996774;28;20075;-74
2021/07/20 10:05:41;;;;;;;4.28;2.10;;;;;;;;;;4996661;28;20462;-74
2021/07/20 10:08:35;;;;;;;4.95;2.40;;;;;;;;;;5012622;28;20014;-74
2021/07/20 10:11:15;;;;;;;4.63;1.98;;;;;;;;;;5013729;28;20033;-74
2021/07/20 10:14:01;;;;;;;4.65;2.28;;;;;;;;;;5012856;28;20028;-75
2021/07/20 10:16:50;;;;;;;3.55;1.90;;;;;;;;;;5012857;28;20376;-74
2021/07/20 10:19:24;;;;;;;4.05;2.03;;;;;;;;;;4997415;28;20556;-74
2021/07/20 10:21:50;;;;;;;4.72;2.20;;;;;;;;;;4996763;28;20030;-74
2021/07/20 10:24:18;;;;;;;3.83;2.08;;;;;;;;;;4996286;28;20156;-74
2021/07/20 10:26:47;;;;;;;3.60;1.92;;;;;;;;;;4996241;28;20099;-74
2021/07/20 10:29:15;;;;;;;4.53;2.08;;;;;;;;;;4996262;28;20022;-74
2021/07/20 10:32:02;;;;;;;4.85;2.17;;;;;;;;;;5013390;28;20034;-74
2021/07/20 10:34:28;;;;;;;4.82;2.05;;;;;;;;;;4995964;28;20477;-74
2021/07/20 10:37:01;;;;;;;4.10;1.80;;;;;;;;;;4995974;28;20040;-74
2021/07/20 10:39:34;;;;;;;4.68;2.25;;;;;;;;;;5007125;23;20811;-76
2021/07/20 10:42:07;;;;;;;4.13;2.08;;;;;;;;;;4976720;28;20034;-76
2021/07/20 10:44:45;;;;;;;4.68;2.30;;;;;;;;;;4976470;28;20030;-76
2021/07/20 10:47:10;;;;;;;3.75;1.90;;;;;;;;;;4989364;28;20054;-76
2021/07/20 10:49:48;;;;;;;3.80;2.00;;;;;;;;;;4971375;28;20113;-76
2021/07/20 10:52:41;;;;;;;4.03;2.00;;;;;;;;;;4992509;28;20030;-76
2021/07/20 10:55:10;;;;;;;5.15;2.30;;;;;;;;;;4993775;28;20473;-76
2021/07/20 10:57:38;;;;;;;4.45;2.10;;;;;;;;;;4960338;28;20030;-76
2021/07/20 11:00:10;;;;;;;5.20;2.25;;;;;;;;;;4976728;28;20018;-76
2021/07/20 11:02:35;;;;;;;4.22;1.90;;;;;;;;;;4976354;28;20030;-76
2021/07/20 11:05:05;;;;;;;4.40;2.10;;;;;;;;;;4993621;28;20073;-76
2021/07/20 11:07:42;;;;;;;4.63;2.28;;;;;;;;;;4992406;28;20113;-76
2021/07/20 11:10:30;;;;;;;4.30;2.13;;;;;;;;;;4993691;28;20034;-76
2021/07/20 11:12:56;;;;;;;;;;;;;;;;;;4993135;28;20045;-76
2021/07/20 11:15:21;;;;;;;4.18;2.15;;;;;;;;;;4988056;28;19910;-76
2021/07/20 11:17:48;;;;;;;4.60;2.13;;;;;;;;;;4972981;28;20110;-76
2021/07/20 11:20:13;;;;;;;;;;;;;;;;;;4973349;28;20023;-76
2021/07/20 11:22:40;;;;;;;3.92;1.90;;;;;;;;;;4972795;28;19914;-76
2021/07/20 11:25:06;;;;;;;4.18;1.95;;;;;;;;;;4956956;28;20031;-76
2021/07/20 11:27:33;;;;;;;4.97;2.15;;;;;;;;;;4972766;28;20031;-76
2021/07/20 11:29:58;;;;;;;4.55;2.00;;;;;;;;;;4972711;28;20038;-76
2021/07/20 11:32:26;;;;;;;3.80;2.20;;;;;;;;;;4972704;28;20482;-76
2021/07/20 11:34:59;;;;;;;4.47;2.15;;;;;;;;;;4973155;28;20536;-76
2021/07/20 11:37:34;;;;;;;4.85;2.03;;;;;;;;;;4973260;28;20441;-76
2021/07/20 11:40:16;;;;;;;4.65;1.85;;;;;;;;;;4972938;28;20026;-76
2021/07/20 11:43:03;;;;;;;5.35;2.22;;;;;;;;;;4957418;28;20046;-76
2021/07/20 11:45:32;;;;;;;5.00;2.15;;;;;;;;;;4973321;28;20042;-76
2021/07/20 11:48:02;;;;;;;5.05;2.13;;;;;;;;;;4973027;28;20063;-76
2021/07/20 11:50:52;;;;;;;5.55;2.00;;;;;;;;;;4972816;28;20474;-76
2021/07/20 11:53:24;;;;;;;4.57;1.98;;;;;;;;;;4983843;28;20509;-76
2021/07/20 11:56:00;;;;;;;4.35;2.15;;;;;;;;;;4976397;28;20121;-76
2021/07/20 11:58:54;;;;;;;4.45;2.08;;;;;;;;;;4995011;28;20389;-76
2021/07/20 12:01:28;;;;;;;4.53;2.20;;;;;;;;;;4995814;28;20029;-76
2021/07/20 12:04:17;;;;;;;4.13;1.80;;;;;;;;;;4996765;28;20030;-76
2021/07/20 12:06:54;;;;;;;5.70;2.42;;;;;;;;;;4996582;28;20022;-76
2021/07/20 12:09:46;;;;;;;4.20;1.92;;;;;;;;;;4979038;28;20105;-76
2021/07/20 12:12:11;;;;;;;4.68;2.20;;;;;;;;;;4978786;28;20027;-76
2021/07/20 12:14:36;;;;;;;4.93;2.00;;;;;;;;;;4995212;28;20057;-76
2021/07/20 12:17:03;;;;;;;4.27;2.17;;;;;;;;;;4995327;28;20109;-76
2021/07/20 12:19:30;;;;;;;4.47;1.95;;;;;;;;;;4979142;28;20015;-76
2021/07/20 12:21:56;;;;;;;4.40;2.10;;;;;;;;;;4962838;28;20034;-76
2021/07/20 12:24:22;;;;;;;4.37;2.07;;;;;;;;;;4978902;28;20053;-76
2021/07/20 12:26:48;;;;;;;5.22;2.10;;;;;;;;;;4995053;28;20112;-76
2021/07/20 12:29:13;;;;;;;4.07;1.92;;;;;;;;;;4978848;28;20113;-76
2021/07/20 12:31:39;;;;;;;4.53;2.20;;;;;;;;;;4994826;28;20022;-76
2021/07/20 12:34:05;;;;;;;4.55;2.13;;;;;;;;;;4978783;28;20030;-76
2021/07/20 12:36:30;;;;;;;4.35;2.08;;;;;;;;;;4962501;28;20041;-76
2021/07/20 12:39:06;;;;;;;4.30;1.90;;;;;;;;;;4962496;28;20022;-76
2021/07/20 12:41:31;;;;;;;4.93;2.10;;;;;;;;;;4994796;28;20026;-76
2021/07/20 12:43:57;;;;;;;4.63;2.00;;;;;;;;;;4978604;28;20453;-76
2021/07/20 12:46:27;;;;;;;3.97;1.73;;;;;;;;;;4978482;28;20073;-76
2021/07/20 12:48:53;;;;;;;4.63;2.13;;;;;;;;;;4978192;28;20027;-76
2021/07/20 12:51:19;;;;;;;4.50;1.90;;;;;;;;;;4962124;28;20049;-76
2021/07/20 12:53:46;;;;;;;4.57;1.88;;;;;;;;;;4978406;28;20022;-76
2021/07/20 12:56:12;;;;;;;4.93;2.13;;;;;;;;;;4994584;28;20026;-76
2021/07/20 12:58:37;;;;;;;3.83;2.13;;;;;;;;;;4991307;28;20033;-76
2021/07/20 13:01:02;;;;;;;4.17;2.00;;;;;;;;;;4975311;28;20106;-76
2021/07/20 13:03:28;;;;;;;4.00;2.20;;;;;;;;;;4974962;28;20367;-76
2021/07/20 13:05:53;;;;;;;4.80;2.20;;;;;;;;;;4975002;28;20142;-76
2021/07/20 13:08:18;;;;;;;4.80;2.30;;;;;;;;;;4974481;28;20117;-76
2021/07/20 13:10:45;;;;;;;5.60;2.27;;;;;;;;;;4975032;28;20549;-76
2021/07/20 13:13:10;;;;;;;4.65;2.00;;;;;;;;;;4976750;28;20035;-76
2021/07/20 13:15:35;;;;;;;4.93;2.00;;;;;;;;;;4961710;28;20081;-76
2021/07/20 13:18:01;;;;;;;4.53;2.10;;;;;;;;;;4994144;28;20397;-76
2021/07/20 13:20:28;;;;;;;4.20;1.80;;;;;;;;;;4978232;28;20030;-76
2021/07/20 13:22:53;;;;;;;5.80;2.00;;;;;;;;;;4995101;28;20022;-76
2021/07/20 13:25:20;;;;;;;5.33;1.90;;;;;;;;;;4961742;28;20033;-76
2021/07/20 13:27:48;;;;;;;4.63;2.20;;;;;;;;;;4987463;28;20022;-76
2021/07/20 13:30:17;;;;;;;4.57;2.20;;;;;;;;;;4974325;28;20030;-76
2021/07/20 13:32:43;;;;;;;4.43;2.05;;;;;;;;;;4974424;28;20038;-76
2021/07/20 13:35:09;;;;;;;4.30;1.93;;;;;;;;;;4975042;28;20063;-76
2021/07/20 13:37:35;;;;;;;4.57;1.77;;;;;;;;;;4975381;28;20035;-76
2021/07/20 13:40:01;;;;;;;3.83;1.97;;;;;;;;;;4974345;28;20033;-76
2021/07/20 13:42:27;;;;;;;4.85;2.10;;;;;;;;;;4974085;28;20282;-75
2021/07/20 13:44:52;;;;;;;4.20;2.00;;;;;;;;;;4974416;28;20038;-76
2021/07/20 13:47:18;;;;;;;5.13;2.43;;;;;;;;;;4958151;28;20101;-76
2021/07/20 13:49:44;;;;;;;4.25;2.28;;;;;;;;;;4973977;28;20039;-76
2021/07/20 13:52:09;;;;;;;3.93;1.90;;;;;;;;;;4974014;28;20031;-76
2021/07/20 13:54:36;;;;;;;4.67;1.90;;;;;;;;;;4973982;28;20489;-76
2021/07/20 13:57:02;;;;;;;5.70;2.08;;;;;;;;;;4974082;28;20463;-76
2021/07/20 13:59:30;;;;;;;4.27;1.93;;;;;;;;;;4957841;28;20030;-76
2021/07/20 14:01:55;;;;;;;3.53;1.63;;;;;;;;;;4974036;28;20037;-76
2021/07/20 14:04:21;;;;;;;4.37;2.10;;;;;;;;;;4957667;28;20030;-76
2021/07/20 14:06:46;;;;;;;5.30;2.33;;;;;;;;;;4973763;28;20038;-76
2021/07/20 14:09:12;;;;;;;5.07;1.93;;;;;;;;;;4957662;28;20465;-76
2021/07/20 14:11:40;;;;;;;4.68;1.80;;;;;;;;;;4957572;28;20027;-76
2021/07/20 14:14:06;;;;;;;3.55;1.95;;;;;;;;;;4957918;28;20426;-76
2021/07/20 14:16:32;;;;;;;4.25;2.00;;;;;;;;;;4957483;28;20030;-76
2021/07/20 14:18:57;;;;;;;4.38;1.98;;;;;;;;;;4973593;28;20425;-76
2021/07/20 14:21:22;;;;;;;3.63;2.10;;;;;;;;;;4973289;28;20031;-76
2021/07/20 14:23:51;;;;;;;4.73;2.13;;;;;;;;;;4973471;28;20062;-76
2021/07/20 14:26:17;;;;;;;6.00;1.95;;;;;;;;;;4957466;28;20089;-76
2021/07/20 14:28:42;;;;;;;4.50;1.95;;;;;;;;;;4976111;28;20104;-76
2021/07/20 14:31:08;;;;;;;4.70;2.07;;;;;;;;;;4976664;28;20053;-76
2021/07/20 14:33:33;;;;;;;5.80;2.10;;;;;;;;;;4976731;28;20030;-76
2021/07/20 14:35:58;;;;;;;5.10;2.13;;;;;;;;;;4976484;28;20030;-76
2021/07/20 14:38:53;;;;;;;5.20;2.20;;;;;;;;;;4992636;28;20109;-76
2021/07/20 14:41:19;;;;;;;4.55;1.83;;;;;;;;;;4984070;28;20489;-76
2021/07/20 14:43:44;;;;;;;4.50;2.07;;;;;;;;;;4992869;28;20080;-76
2021/07/20 14:46:14;;;;;;;4.63;2.07;;;;;;;;;;4976467;28;20033;-76
2021/07/20 14:48:43;;;;;;;4.45;2.13;;;;;;;;;;4976264;28;20397;-76
2021/07/20 14:51:09;;;;;;;6.03;2.33;;;;;;;;;;4976673;28;20374;-76
2021/07/20 14:53:35;;;;;;;5.53;2.23;;;;;;;;;;4976782;28;20033;-76
2021/07/20 14:56:09;;;;;;;5.95;2.28;;;;;;;;;;4992636;28;20106;-76
2021/07/20 14:58:37;;;;;;;4.78;1.98;;;;;;;;;;4976550;28;20072;-76